Time;durP1;ratioP1;P1;durP2;ratioP2;P2;SDS_P1;SDS_P2;PMS_P1;PMS_P2;Temp;Humidity;BMP_temperature;BMP_pressure;BME280_temperature;BME280_humidity;BME280_pressure;Samples;Min_cycle;Max_cycle;Signal;HPM_P1;HPM_P2
2022/03/08 00:00:19;;;;;;;15.38;9.23;;;;;;;1.62;87.15;66958.53;4993956;28;20038;-87
2022/03/08 00:02:45;;;;;;;14.05;9.00;;;;;;;1.57;86.56;66958.69;5028016;28;20077;-87
2022/03/08 00:05:10;;;;;;;14.35;9.15;;;;;;;1.59;86.61;66957.78;5013045;28;20069;-89
2022/03/08 00:07:36;;;;;;;12.98;8.48;;;;;;;1.60;86.28;66960.94;5031038;28;20064;-87
2022/03/08 00:10:03;;;;;;;12.73;9.02;;;;;;;1.63;86.36;66959.09;5011375;28;20087;-90
2022/03/08 00:12:29;;;;;;;12.55;7.80;;;;;;;1.60;84.48;66956.28;5010921;28;20044;-87
2022/03/08 00:14:54;;;;;;;11.73;8.15;;;;;;;1.63;84.75;66961.72;5027719;28;20120;-87
2022/03/08 00:17:19;;;;;;;13.80;8.80;;;;;;;;;;4978363;28;20042;-89
2022/03/08 00:19:44;;;;;;;12.50;8.60;;;;;;;1.60;85.87;66956.28;5012391;28;20049;-88
2022/03/08 00:22:10;;;;;;;11.82;8.57;;;;;;;1.62;85.17;66957.97;5013315;28;20096;-88
2022/03/08 00:24:50;;;;;;;10.65;6.70;;;;;;;1.57;83.48;66956.06;4986931;28;20053;-83
2022/03/08 00:27:18;;;;;;;12.60;8.35;;;;;;;1.57;84.45;66953.44;5001388;28;20128;-84
2022/03/08 00:29:51;;;;;;;9.93;6.43;;;;;;;1.53;83.94;66948.97;5014687;28;20046;-87
2022/03/08 00:32:37;;;;;;;13.25;8.77;;;;;;;1.60;84.74;66958.34;5018667;28;20092;-88
2022/03/08 00:35:04;;;;;;;13.05;8.25;;;;;;;1.59;85.52;66957.78;5009430;28;20050;-90
2022/03/08 00:37:29;;;;;;;13.20;8.10;;;;;;;1.54;85.41;66950.06;5016385;28;20042;-85
2022/03/08 00:40:08;;;;;;;13.00;8.57;;;;;;;1.47;85.08;66944.81;5002408;28;20156;-86
2022/03/08 00:42:36;;;;;;;;;;;;;;;1.41;84.98;66934.88;5008647;28;20049;-88
2022/03/08 00:45:07;;;;;;;;;;;;;;;1.35;86.04;66931.28;5033250;28;19932;-87
2022/03/08 00:47:36;;;;;;;;;;;;;;;1.28;85.85;66921.38;5005756;28;19918;-86
2022/03/08 00:50:03;;;;;;;;;;;;;;;;;;5037007;28;20350;-89
2022/03/08 00:52:30;;;;;;;;;;;;;;;1.19;85.54;66910.69;5038252;28;19920;-90
2022/03/08 00:54:59;;;;;;;;;;;;;;;;;;5027740;28;19979;-86
2022/03/08 00:57:24;;;;;;;;;;;;;;;;;;5041452;28;19960;-88
2022/03/08 00:59:50;;;;;;;;;;;;;;;;;;5016816;28;19921;-88
2022/03/08 01:02:15;;;;;;;;;;;;;;;1.16;86.80;66909.94;5047811;28;19913;-87
2022/03/08 01:04:43;;;;;;;;;;;;;;;1.15;84.97;66909.34;5032731;28;19925;-84
2022/03/08 01:07:14;;;;;;;;;;;;;;;1.11;86.45;66907.47;5014773;28;19921;-86
2022/03/08 01:09:45;;;;;;;;;;;;;;;1.16;85.05;66907.88;5045617;28;20282;-88
2022/03/08 01:12:11;;;;;;;;;;;;;;;1.19;84.41;66910.69;5047155;28;20453;-86
2022/03/08 01:14:42;;;;;;;;;;;;;;;1.20;83.99;66917.03;5044704;28;19925;-87
2022/03/08 01:17:19;;;;;;;;;;;;;;;1.21;84.80;66915.53;5027271;28;19921;-85
2022/03/08 01:19:46;;;;;;;;;;;;;;;1.22;85.30;66916.69;5008427;28;19917;-86
2022/03/08 01:22:13;;;;;;;;;;;;;;;1.20;83.96;66917.03;5000240;28;20302;-89
2022/03/08 01:24:40;;;;;;;;;;;;;;;1.23;84.88;66920.41;5036050;28;19922;-87
2022/03/08 01:27:05;;;;;;;;;;;;;;;1.22;85.00;66914.06;5021309;28;20008;-89
2022/03/08 01:29:31;;;;;;;;;;;;;;;1.20;84.39;66914.97;5012693;28;20453;-85
2022/03/08 01:35:00;;;;;;;;;;;;;;;1.16;85.26;66907.31;5033738;28;19969;-86
2022/03/08 01:37:26;;;;;;;;;;;;;;;1.10;85.66;66906.34;4993272;28;19917;-86
2022/03/08 01:39:51;;;;;;;;;;;;;;;1.06;84.87;66896.59;5006531;28;19953;-88
2022/03/08 01:42:17;;;;;;;;;;;;;;;0.95;83.52;66890.03;5039431;28;19952;-87
2022/03/08 01:44:43;;;;;;;;;;;;;;;0.99;84.89;66891.91;5021393;28;19953;-91
2022/03/08 01:47:20;;;;;;;;;;;;;;;1.01;84.56;66896.78;4997454;28;19945;-87
2022/03/08 01:49:58;;;;;;;;;;;;;;;0.99;84.85;66889.28;4999272;28;19939;-93
2022/03/08 01:52:27;;;;;;;;;;;;;;;0.94;84.98;66883.09;5003356;28;19917;-86
2022/03/08 01:54:58;;;;;;;;;;;;;;;0.92;83.60;66884.03;5040558;28;20437;-88
2022/03/08 01:57:25;;;;;;;;;;;;;;;0.94;82.82;66888.34;5009212;28;19913;-87
2022/03/08 01:59:55;;;;;;;;;;;;;;;0.94;83.74;66888.34;5012276;28;19917;-88
2022/03/08 02:02:23;;;;;;;;;;;;;;;0.87;82.88;66881.03;5011509;28;20020;-87
2022/03/08 02:04:51;;;;;;;;;;;;;;;0.87;84.82;66876.34;5012266;28;19924;-88
2022/03/08 02:07:27;;;;;;;;;;;;;;;0.91;81.33;66882.91;5034740;28;19936;-88
2022/03/08 02:10:06;;;;;;;;;;;;;;;0.94;83.90;66885.72;5005413;28;19924;-85
2022/03/08 02:12:45;;;;;;;;;;;;;;;0.86;83.82;66875.22;5011842;28;19921;-88
2022/03/08 02:15:27;;;;;;;;;;;;;;;0.86;84.82;66875.22;5005834;28;20360;-88
2022/03/08 02:17:57;;;;;;;;;;;;;;;0.74;83.64;66866.41;5010540;28;19917;-87
2022/03/08 02:20:23;;;;;;;;;;;;;;;0.72;84.33;66864.13;5011783;28;19932;-88
2022/03/08 02:22:49;;;;;;;;;;;;;;;0.74;84.93;66866.97;5034955;28;19918;-84
2022/03/08 02:25:16;;;;;;;;;;;;;;;0.78;85.21;66870.91;5024794;28;19913;-87
2022/03/08 02:27:51;;;;;;;;;;;;;;;0.81;85.37;66871.66;5026457;28;19914;-88
2022/03/08 02:30:18;;;;;;;;;;;;;;;0.76;84.42;66863.41;5027147;28;20340;-86
2022/03/08 02:32:48;;;;;;;;;;;;;;;0.64;84.55;66856.28;5007196;28;19940;-88
2022/03/08 02:35:15;;;;;;;;;;;;;;;0.63;84.17;66851.97;5019849;28;19913;-88
2022/03/08 02:37:45;;;;;;;;;;;;;;;0.63;84.90;66854.56;5011949;28;19913;-84
2022/03/08 02:40:13;;;;;;;;;;;;;;;0.65;85.46;66852.16;5023669;28;19928;-86
2022/03/08 02:42:40;;;;;;;;;;;;;;;0.57;85.66;66848.38;5010869;28;19964;-86
2022/03/08 02:45:09;;;;;;;;;;;;;;;0.55;85.92;66842.97;5002798;28;19971;-85
2022/03/08 02:47:34;;;;;;;;;;;;;;;0.50;85.83;66837.91;5038441;28;19925;-88
2022/03/08 02:50:03;;;;;;;;;;;;;;;0.51;86.47;66835.84;5005927;28;19921;-88
2022/03/08 02:52:28;;;;;;;;;;;;;;;0.38;85.40;66821.78;5010162;28;19917;-85
2022/03/08 02:54:55;;;;;;;;;;;;;;;0.39;86.20;66825.53;5027766;28;19976;-84
2022/03/08 02:57:26;;;;;;;;;;;;;;;0.44;85.97;66828.53;5013603;28;19925;-86
2022/03/08 03:00:03;;;;;;;;;;;;;;;0.36;87.01;66822.16;5021444;28;20148;-85
2022/03/08 03:02:35;;;;;;;;;;;;;;;0.34;85.52;66817.28;5021198;28;19914;-87
2022/03/08 03:05:02;;;;;;;;;;;;;;;0.31;85.18;66819.16;5018673;28;19924;-86
2022/03/08 03:07:29;;;;;;;;;;;;;;;;;;5031973;28;20290;-87
2022/03/08 03:10:00;;;;;;;;;;;;;;;0.33;87.08;66816.16;5036681;28;19920;-87
2022/03/08 03:12:25;;;;;;;;;;;;;;;0.24;86.10;66809.22;5030243;28;19913;-85
2022/03/08 03:14:53;;;;;;;;;;;;;;;0.25;86.66;66809.78;5003068;28;19923;-87
2022/03/08 03:17:19;;;;;;;;;;;;;;;0.22;86.14;66804.91;5026283;28;19913;-87
2022/03/08 03:19:46;;;;;;;;;;;;;;;0.27;86.79;66815.22;5042253;28;19920;-86
2022/03/08 03:22:26;;;;;;;;;;;;;;;0.23;84.77;66810.69;5020933;28;19928;-85
2022/03/08 03:27:43;;;;;;;;;;;;;;;0.26;86.32;66810.91;5007214;28;19963;-91
2022/03/08 03:30:13;;;;;;;;;;;;;;;0.30;86.24;66815.97;5008471;28;19921;-87
2022/03/08 03:32:40;;;;;;;;;;;;;;;0.27;86.37;66812.03;5005490;28;19947;-86
2022/03/08 03:35:06;;;;;;;;;;;;;;;0.19;84.52;66803.59;5004100;28;19914;-89
2022/03/08 03:37:33;;;;;;;;;;;;;;;0.26;85.47;66813.50;5022593;28;19918;-85
2022/03/08 03:40:29;;;;;;;;;;;;;;;0.27;85.91;66809.41;5008545;28;19921;-87
2022/03/08 03:42:58;;;;;;;;;;;;;;;0.33;86.66;66821.41;5030695;28;19914;-87
2022/03/08 03:45:25;;;;;;;;;;;;;;;0.33;85.89;66816.16;4988777;28;19929;-89
2022/03/08 03:48:02;;;;;;;;;;;;;;;0.31;85.41;66821.75;5005730;28;19970;-87
2022/03/08 03:50:34;;;;;;;;;;;;;;;0.34;84.65;66817.28;5036453;28;19940;-91
2022/03/08 03:53:05;;;;;;;;;;;;;;;0.32;85.18;66820.28;5042220;28;19913;-87
2022/03/08 03:55:41;;;;;;;;;;;;;;;0.33;86.16;66816.16;5002049;28;19973;-86
2022/03/08 03:58:07;;;;;;;;;;;;;;;0.28;83.28;66813.16;5009731;28;19921;-85
2022/03/08 04:00:42;;;;;;;;;;;;;;;;;;5041091;28;19917;-90
2022/03/08 04:03:18;;;;;;;;;;;;;;;0.24;84.79;66809.22;5037837;28;19918;-88
2022/03/08 04:05:45;;;;;;;;;;;;;;;0.22;84.76;66804.91;4996259;28;19913;-88
2022/03/08 04:08:12;;;;;;;;;;;;;;;0.24;84.58;66809.22;5016727;28;20302;-85
2022/03/08 04:10:37;;;;;;;;;;;;;;;0.24;85.92;66806.59;5021538;28;19913;-85
2022/03/08 04:13:07;;;;;;;;;;;;;;;0.21;85.50;66805.84;5023016;28;19924;-92
2022/03/08 04:15:50;;;;;;;;;;;;;;;;;;5024599;28;19919;-90
2022/03/08 04:18:17;;;;;;;;;;;;;;;0.08;85.34;66791.78;5037968;28;19913;-87
2022/03/08 04:20:43;;;;;;;;;;;;;;;0.07;83.59;66790.09;5005237;28;19920;-85
2022/03/08 04:23:09;;;;;;;;;;;;;;;0.14;86.45;66797.97;5035166;28;19987;-89
2022/03/08 04:25:37;;;;;;;;;;;;;;;0.10;86.81;66794.03;5011379;28;20328;-87
2022/03/08 04:28:04;;;;;;;;;;;;;;;0.04;85.67;66787.28;5013026;28;19917;-88
2022/03/08 04:30:29;;;;;;;;;;;;;;;0.01;86.04;66786.53;5043905;28;19924;-89
2022/03/08 04:32:56;;;;;;;;;;;;;;;0.01;86.36;66781.31;5010546;28;19947;-85
2022/03/08 04:35:23;;;;;;;;;;;;;;;-0.05;87.27;66780.34;5035397;28;19925;-88
2022/03/08 04:37:49;;;;;;;;;;;;;;;-0.09;87.24;66775.28;5011629;28;19953;-87
2022/03/08 04:40:21;;;;;;;;;;;;;;;-0.12;87.17;66769.84;5010266;28;19949;-86
2022/03/08 04:42:48;;;;;;;;;;;;;;;-0.14;87.62;66769.69;5040859;28;19922;-89
2022/03/08 04:45:18;;;;;;;;;;;;;;;-0.23;87.64;66757.50;5034752;28;19917;-91
2022/03/08 04:47:45;;;;;;;;;;;;;;;-0.18;87.70;66763.13;5014693;28;19921;-89
2022/03/08 04:50:14;;;;;;;;;;;;;;;-0.18;87.03;66762.56;5028712;28;20000;-84
2022/03/08 04:52:40;;;;;;;;;;;;;;;-0.28;87.51;66755.06;5015704;28;19921;-84
2022/03/08 04:55:06;;;;;;;;;;;;;;;-0.27;87.69;66753.56;5034177;28;20536;-85
2022/03/08 04:57:39;;;;;;;;;;;;;;;-0.26;87.61;66756.72;5019384;28;19920;-85
2022/03/08 05:00:11;;;;;;;;;;;;;;;-0.29;87.90;66750.75;5030991;28;19914;-84
2022/03/08 05:02:38;;;;;;;;;;;;;;;-0.34;86.90;66745.69;5043451;28;19921;-83
2022/03/08 05:05:04;;;;;;;;;;;;;;;-0.39;86.33;66742.69;5022505;28;19967;-83
2022/03/08 05:07:29;;;;;;;;;;;;;;;-0.38;84.63;66743.81;5032678;28;19917;-85
2022/03/08 05:09:54;;;;;;;;;;;;;;;-0.30;86.98;66752.81;5027133;28;19917;-89
2022/03/08 05:12:20;;;;;;;;;;;;;;;-0.31;87.44;66749.06;5044100;28;19913;-87
2022/03/08 05:14:46;;;;;;;;;;;;;;;-0.31;86.28;66748.50;5007122;28;19956;-89
2022/03/08 05:17:11;;;;;;;;;;;;;;;-0.29;88.38;66753.94;5021679;28;19948;-84
2022/03/08 05:19:51;;;;;;;;;;;;;;;-0.31;87.61;66749.06;5024766;28;19944;-88
2022/03/08 05:22:22;;;;;;;;;;;;;;;-0.29;87.72;66753.94;5040307;28;20269;-87
2022/03/08 05:24:49;;;;;;;;;;;;;;;-0.29;87.52;66753.94;5040914;28;20345;-86
2022/03/08 05:27:15;;;;;;;;;;;;;;;-0.32;88.82;66750.53;5003551;28;19975;-86
2022/03/08 05:29:41;;;;;;;;;;;;;;;-0.35;88.26;66744.00;5009311;28;19922;-91
2022/03/08 05:32:12;;;;;;;;;;;;;;;-0.37;86.05;66744.38;5024171;28;19914;-93
2022/03/08 05:34:39;;;;;;;;;;;;;;;-0.29;88.55;66753.38;5032819;28;19917;-89
2022/03/08 05:37:18;;;;;;;;;;;;;;;-0.34;87.55;66742.53;5031371;28;19914;-89
2022/03/08 05:39:44;;;;;;;;;;;;;;;-0.28;88.04;66749.81;5027334;28;19993;-86
2022/03/08 05:42:14;;;;;;;;;;;;;;;-0.27;88.38;66753.56;5025100;28;20505;-91
2022/03/08 05:44:39;;;;;;;;;;;;;;;-0.29;87.73;66753.38;5025378;28;20390;-88
2022/03/08 05:47:07;;;;;;;;;;;;;;;;;;5019571;28;19960;-90
2022/03/08 05:49:33;;;;;;;;;;;;;;;-0.30;87.15;66747.00;5031901;28;19968;-91
2022/03/08 05:51:58;;;;;;;;;;;;;;;-0.34;87.53;66745.69;5010086;28;19913;-88
2022/03/08 05:54:23;;;;;;;;;;;;;;;-0.31;88.23;66746.47;5009763;28;19999;-91
2022/03/08 05:56:48;;;;;;;;;;;;;;;-0.35;87.96;66747.19;5044198;28;19917;-86
2022/03/08 05:59:31;;;;;;;;;;;;;;;-0.41;87.86;66740.44;5020034;28;19919;-89
2022/03/08 06:01:56;;;;;;;;;;;;;;;-0.42;88.73;66736.72;5011643;28;19935;-89
2022/03/08 06:04:26;;;;;;;;;;;;;;;;;;5016477;28;20356;-88
2022/03/08 06:06:52;;;;;;;;;;;;;;;-0.58;90.80;66716.09;5026180;28;19925;-87
2022/03/08 06:09:18;;;;;;;;;;;;;;;-0.70;90.78;66708.41;4989961;28;20418;-90
2022/03/08 06:11:44;;;;;;;;;;;;;;;-0.73;91.41;66705.59;5008086;28;19945;-87
2022/03/08 06:14:10;;;;;;;;;;;;;;;-0.69;91.99;66710.09;5037118;28;19924;-87
2022/03/08 06:16:36;;;;;;;;;;;;;;;-0.81;92.20;66696.59;5005001;28;19964;-89
2022/03/08 06:19:02;;;;;;;;;;;;;;;-0.86;92.23;66691.00;5016165;28;20360;-86
2022/03/08 06:21:35;;;;;;;;;;;;;;;-0.83;92.52;66694.38;5006586;28;19923;-89
2022/03/08 06:24:14;;;;;;;;;;;;;;;-0.96;91.84;66677.16;5021519;28;19917;-88
2022/03/08 06:26:55;;;;;;;;;;;;;;;-1.05;91.41;66672.25;5020710;28;20374;-88
2022/03/08 06:29:20;;;;;;;;;;;;;;;-1.01;94.15;66674.69;5010845;28;19913;-89
2022/03/08 06:31:46;;;;;;;;;;;;;;;-1.03;93.40;66669.84;5011812;28;19967;-88
2022/03/08 06:34:15;;;;;;;;;;;;;;;-1.04;92.20;66668.16;5016953;28;19929;-89
2022/03/08 06:36:42;;;;;;;;;;;;;;;-0.98;92.44;66674.91;5000359;28;19917;-87
2022/03/08 06:39:15;;;;;;;;;;;;;;;-0.90;92.62;66683.88;5001648;28;19964;-89
2022/03/08 06:41:49;;;;;;;;;;;;;;;-0.81;93.93;66691.38;5038528;28;19922;-88
2022/03/08 06:44:15;;;;;;;;;;;;;;;-0.69;91.78;66704.88;5037573;28;20275;-88
2022/03/08 06:46:48;;;;;;;;;;;;;;;-0.59;91.08;66720.78;5021348;28;19971;-88
2022/03/08 06:49:18;;;;;;;;;;;;;;;-0.51;91.08;66729.22;5024555;28;20299;-88
2022/03/08 06:51:55;;;;;;;;;;;;;;;-0.43;90.44;66735.59;5017188;28;19997;-89
2022/03/08 06:54:40;;;;;;;;;;;;;;;-0.29;90.28;66753.94;5029972;28;19913;-87
2022/03/08 06:57:17;;;;;;;;;;;;;;;-0.13;87.83;66771.34;5002258;28;19914;-88
2022/03/08 06:59:42;;;;;;;;;;;;;;;-0.02;88.77;66785.78;4999294;28;19917;-85
2022/03/08 07:02:09;;;;;;;;;;;;;;;0.07;87.16;66792.72;5018832;28;19937;-87
2022/03/08 07:04:34;;;;;;;;;;;;;;;0.21;87.09;66803.22;4985767;28;19917;-87
2022/03/08 07:07:04;;;;;;;;;;;;;;;0.29;85.11;66819.50;5007784;28;19959;-86
2022/03/08 07:09:39;;;;;;;;;;;;;;;0.38;86.13;66822.34;5033188;28;19943;-87
2022/03/08 07:12:05;;;;;;;;;;;;;;;0.52;84.86;66842.78;5037623;28;20008;-86
2022/03/08 07:14:38;;;;;;;;;;;;;;;0.65;84.29;66854.78;5009033;28;19924;-86
2022/03/08 07:17:03;;;;;;;;;;;;;;;0.78;84.41;66868.28;5019113;28;19913;-87
2022/03/08 07:19:28;;;;;;;;;;;;;;;0.90;82.07;66879.16;4999501;28;19918;-86
2022/03/08 07:21:55;;;;;;;;;;;;;;;1.05;81.01;66901.28;5023415;28;19924;-86
2022/03/08 07:24:20;;;;;;;;;;;;;;;1.23;81.53;66915.19;5005032;28;20055;-86
2022/03/08 07:26:46;;;;;;;;;;;;;;;1.30;80.63;66923.06;5006749;28;19996;-87
2022/03/08 07:29:15;;;;;;;;;;;;;;;;;;5037505;28;19928;-89
2022/03/08 07:31:41;;;;;;;;;;;;;;;1.56;79.43;66951.78;5036705;28;19928;-88
2022/03/08 07:34:08;;;;;;;;;;;;;;;1.66;78.55;66965.09;5013853;28;19914;-86
2022/03/08 07:36:43;;;;;;;;;;;;;;;1.70;78.87;66970.16;5006664;28;19999;-87
2022/03/08 07:39:10;;;;;;;;;;;;;;;1.85;75.87;66985.94;5028493;28;19924;-89
2022/03/08 07:41:38;;;;;;;;;;;;;;;1.93;77.17;66992.31;4986941;28;19914;-87
2022/03/08 07:44:18;;;;;;;;;;;;;;;2.02;75.60;67003.00;5001347;28;20375;-87
2022/03/08 07:46:44;;;;;;;;;;;;;;;2.15;75.57;67019.72;5020491;28;19917;-88
2022/03/08 07:49:10;;;;;;;;;;;;;;;2.18;76.69;67020.47;5009278;28;19921;-86
2022/03/08 07:51:37;;;;;;;;;;;;;;;2.25;74.95;67033.06;4995526;28;19924;-89
2022/03/08 07:54:02;;;;;;;;;;;;;;;2.37;74.07;67041.31;5014468;28;20017;-88
2022/03/08 07:56:30;;;;;;;;;;;;;;;2.45;75.37;67049.78;4975372;28;20379;-86
2022/03/08 07:58:56;;;;;;;;;;;;;;;2.49;73.80;67057.47;5012845;28;20067;-87
2022/03/08 08:01:30;;;;;;;;;;;;;;;2.54;73.99;67059.34;5019078;28;20046;-86
2022/03/08 08:03:57;;;;;;;;;;;;;;;2.60;73.44;67066.09;5003484;28;19921;-86
2022/03/08 08:06:24;;;;;;;;;;;;;;;2.67;73.82;67074.00;4993619;28;19921;-88
2022/03/08 08:08:55;;;;;;;;;;;;;;;2.76;73.98;67086.19;4995774;28;19917;-86
2022/03/08 08:11:20;;;;;;;;;;;;;;;2.82;74.01;67090.91;4996428;28;20356;-87
2022/03/08 08:14:02;;;;;;;;;;;;;;;2.89;73.11;67103.50;5004012;28;19913;-87
2022/03/08 08:16:37;;;;;;;;;;;;;;;3.00;71.82;67115.88;5025970;28;19913;-88
2022/03/08 08:19:05;;;;;;;;;;;;;;;3.12;71.92;67126.22;4998397;28;19918;-87
2022/03/08 08:21:46;;;;;;;;;;;;;;;3.17;71.88;67129.81;5031540;28;20515;-87
2022/03/08 08:24:20;;;;;;;;;;;;;;;3.31;71.90;67150.28;4998852;28;20325;-87
2022/03/08 08:26:46;;;;;;;;;;;;;;;3.36;70.88;67150.66;5016524;28;20345;-86
2022/03/08 08:29:12;;;;;;;;;;;;;;;3.46;70.92;67163.44;5004930;28;19917;-87
2022/03/08 08:31:39;;;;;;;;;;;;;;;3.55;69.40;67176.78;5002729;28;19925;-86
2022/03/08 08:34:04;;;;;;;;;;;;;;;3.69;70.01;67189.38;4995753;28;19917;-86
2022/03/08 08:36:30;;;;;;;;;;;;;;;;;;4999184;28;19925;-86
2022/03/08 08:39:00;;;;;;;;;;;;;;;3.76;67.19;67189.38;5031566;28;19913;-87
2022/03/08 08:41:27;;;;;;;;;;;;;;;3.84;67.75;67206.31;5033221;28;20558;-86
2022/03/08 08:43:54;;;;;;;;;;;;;;;3.83;67.80;67202.00;5006004;28;20012;-86
2022/03/08 08:46:19;;;;;;;;;;;;;;;;;;4988359;28;19949;-87
2022/03/08 08:48:48;;;;;;;;;;;;;;;4.03;66.50;67224.00;5000384;28;20079;-86
2022/03/08 08:51:17;;;;;;;;;;;;;;;;;;5028129;28;20291;-86
2022/03/08 08:53:50;;;;;;;;;;;;;;;4.20;66.52;67243.19;4993934;28;19914;-86
2022/03/08 08:56:17;;;;;;;;;;;;;;;4.27;67.45;67251.06;5037821;28;19956;-87
2022/03/08 08:58:43;;;;;;;;;;;;;;;;;;5005848;28;20269;-86
2022/03/08 09:01:26;;;;;;;;;;;;;;;;;;5035272;28;19924;-87
2022/03/08 09:04:00;;;;;;;;;;;;;;;4.47;64.55;67275.16;5022533;28;19929;-87
2022/03/08 09:06:25;;;;;;;;;;;;;;;;;;5033087;28;19924;-86
2022/03/08 09:08:51;;;;;;;;;;;;;;;4.54;66.20;67283.06;5036145;28;20529;-86
2022/03/08 09:11:17;;;;;;;;;;;;;;;4.65;65.87;67294.91;5005295;28;19924;-86
2022/03/08 09:13:43;;;;;;;;;;;;;;;4.76;65.89;67304.69;5039261;28;19917;-86
2022/03/08 09:16:14;;;;;;;;;;;;;;;4.78;63.78;67306.41;5007433;28;20736;-88
2022/03/08 09:18:40;;;;;;;;;;;;;;;4.81;65.00;67309.78;5007746;28;19921;-86
2022/03/08 09:21:27;;;;;;;;;;;;;;;4.91;64.80;67324.28;5005364;28;19921;-86
2022/03/08 09:24:15;;;;;;;;;;;;;;;5.03;63.00;67337.25;5005623;28;20378;-86
2022/03/08 09:29:37;;;;;;;;;;;;;;;;;;5006778;28;19920;-87
2022/03/08 09:32:03;;;;;;;;;;;;;;;5.24;62.34;67357.78;5038724;28;19932;-85
2022/03/08 09:34:31;;;;;;;;;;;;;;;5.26;61.61;67362.13;4997850;28;20359;-85
2022/03/08 09:36:59;;;;;;;;;;;;;;;5.32;63.34;67366.25;4994961;28;19921;-86
2022/03/08 09:39:24;;;;;;;;;;;;;;;;;;5024154;28;19914;-86
2022/03/08 09:41:53;;;;;;;;;;;;;;;5.37;62.70;67372.47;5036003;28;19924;-87
2022/03/08 09:44:21;;;;;;;;;;;;;;;5.39;61.10;67376.81;5029829;28;19933;-88
2022/03/08 09:46:46;;;;;;;;;;;;;;;5.54;63.06;67391.13;4998921;28;19925;-87
2022/03/08 09:49:19;;;;;;;;;;;;;;;5.62;61.05;67400.16;4998967;28;19917;-87
2022/03/08 09:51:45;;;;;;;;;;;;;;;;;;5028871;28;19917;-86
2022/03/08 09:54:13;;;;;;;;;;;;;;;5.77;60.72;67411.25;5029868;28;19918;-86
2022/03/08 09:56:40;;;;;;;;;;;;;;;;;;5017097;28;20404;-87
2022/03/08 09:59:22;;;;;;;;;;;;;;;5.89;58.77;67429.53;5037924;28;19940;-87
2022/03/08 10:01:53;;;;;;;;;;;;;;;5.85;59.19;67425.03;5001224;28;19941;-86
2022/03/08 10:04:20;;;;;;;;;;;;;;;6.01;59.28;67442.56;4990772;28;19965;-87
2022/03/08 10:06:46;;;;;;;;;;;;;;;;;;4998132;28;19921;-87
2022/03/08 10:09:14;;;;;;;;;;;;;;;6.16;56.28;67462.16;5027142;28;20378;-87
2022/03/08 10:11:50;;;;;;;;;;;;;;;;;;5004269;28;19914;-87
2022/03/08 10:14:27;;;;;;;;;;;;;;;6.16;55.37;67459.53;5004163;28;19963;-86
2022/03/08 10:16:53;;;;;;;;;;;;;;;6.16;55.85;67453.66;5001277;28;19972;-87
2022/03/08 10:19:18;;;;;;;;;;;;;;;6.29;56.67;67468.94;5020489;28;20006;-87
2022/03/08 10:21:55;;;;;;;;;;;;;;;6.35;55.19;67482.50;5037793;28;20004;-86
2022/03/08 10:26:50;;;;;;;;;;;;;;;;;;4998788;28;20000;-86
2022/03/08 10:29:49;;;;;;;;;;;;;;;6.54;52.56;67496.63;4997527;28;20007;-86
2022/03/08 10:32:21;;;;;;;;;;;;;;;6.55;56.18;67497.75;4985239;28;19914;-86
2022/03/08 10:34:46;;;;;;;;;;;;;;;;;;5027563;28;19918;-86
2022/03/08 10:37:19;;;;;;;;;;;;;;;6.57;53.42;67506.84;5035936;28;19939;-87
2022/03/08 10:39:48;;;;;;;;;;;;;;;6.67;54.39;67516.06;5001497;28;22096;-86
2022/03/08 10:42:33;;;;;;;;;;;;;;;6.78;54.13;67530.56;5003159;28;19919;-87
2022/03/08 10:45:04;;;;;;;;;;;;;;;;;;5003013;28;19928;-86
2022/03/08 10:47:51;;;;;;;;;;;;;;;7.03;53.63;67547.16;5011580;28;19926;-87
2022/03/08 10:50:19;;;;;;;;;;;;;;;;;;4998283;28;20293;-87
2022/03/08 10:52:49;;;;;;;;;;;;;;;;;;5000301;28;20049;-87
2022/03/08 10:55:23;;;;;;;;;;;;;;;;;;5017578;28;20289;-86
2022/03/08 10:57:54;;;;;;;;;;;;;;;7.34;54.13;67592.25;5004730;28;19941;-86
2022/03/08 11:00:27;;;;;;;;;;;;;;;;;;5000541;28;19917;-86
2022/03/08 11:03:06;;;;;;;;;;;;;;;;;;5002980;28;19918;-86
2022/03/08 11:05:32;;;;;;;;;;;;;;;7.49;51.19;67606.59;5030728;28;19932;-87
2022/03/08 11:08:00;;;;;;;;;;;;;;;7.38;53.30;67589.41;5004745;28;19918;-87
2022/03/08 11:10:26;;;;;;;;;;;;;;;7.57;52.17;67609.78;5000395;28;20337;-86
2022/03/08 11:12:54;;;;;;;;;;;;;;;7.50;53.68;67601.84;5006996;28;19917;-86
2022/03/08 11:15:21;;;;;;;;;;;;;;;7.59;52.09;67617.31;5008310;28;19917;-87
2022/03/08 11:17:48;;;;;;;;;;;;;;;;;;5000054;28;19921;-87
2022/03/08 11:20:27;;;;;;;;;;;;;;;7.67;53.12;67621.66;5038532;28;19917;-86
2022/03/08 11:22:55;;;;;;;;;;;;;;;7.65;50.10;67619.41;5002437;28;19913;-87
2022/03/08 11:25:42;;;;;;;;;;;;;;;7.72;50.68;67631.50;5019279;28;20271;-88
2022/03/08 11:28:09;;;;;;;;;;;;;;;;;;4981880;28;19932;-87
2022/03/08 11:30:44;;;;;;;;;;;;;;;7.91;51.97;67652.97;5036591;28;19919;-85
2022/03/08 11:33:41;;;;;;;;;;;;;;;7.94;49.62;67650.53;5018613;28;19955;-85
2022/03/08 11:36:08;;;;;;;;;;;;;;;8.06;51.62;67664.13;5009208;28;20278;-85
2022/03/08 11:38:41;;;;;;;;;;;;;;;8.09;50.67;67664.88;5035010;28;19979;-85
2022/03/08 11:41:06;;;;;;;;;;;;;;;8.11;50.59;67677.72;5022909;28;20064;-85
2022/03/08 11:43:41;;;;;;;;;;;;;;;8.20;50.65;67674.66;5041087;28;19997;-85
2022/03/08 11:46:11;;;;;;;;;;;;;;;8.17;48.37;67681.88;5007563;28;19921;-85
2022/03/08 11:48:48;;;;;;;;;;;;;;;8.22;50.77;67687.53;5010229;28;19976;-85
2022/03/08 11:51:13;;;;;;;;;;;;;;;8.28;50.28;67694.31;5007219;28;20322;-86
2022/03/08 11:53:40;;;;;;;;;;;;;;;;;;5004421;28;19913;-87
2022/03/08 11:56:14;;;;;;;;;;;;;;;8.35;46.82;67704.34;5037539;28;19995;-85
2022/03/08 11:58:50;;;;;;;;;;;;;;;;;;5011934;28;19913;-86
2022/03/08 12:01:32;;;;;;;;;;;;;;;8.47;48.68;67717.41;5040261;28;19928;-85
2022/03/08 12:03:57;;;;;;;;;;;;;;;;;;4995497;28;19925;-84
2022/03/08 12:06:24;;;;;;;;;;;;;;;;;;5037844;28;20299;-85
2022/03/08 12:08:49;;;;;;;;;;;;;;;;;;5040466;28;19971;-86
2022/03/08 12:11:16;;;;;;;;;;;;;;;9.04;47.56;67770.22;5011913;28;19921;-85
2022/03/08 12:13:42;;;;;;;;;;;;;;;;;;5009525;28;20012;-86
2022/03/08 12:16:09;;;;;;;;;;;;;;;9.01;47.46;67770.06;5010752;28;20380;-85
2022/03/08 12:18:35;;;;;;;;;;;;;;;8.98;46.75;67766.09;5029508;28;19918;-85
2022/03/08 12:21:22;;;;;;;;;;;;;;;9.14;46.08;67789.53;5036690;28;19924;-85
2022/03/08 12:24:06;;;;;;;;;;;;;;;9.28;46.20;67799.53;5004184;28;20382;-85
2022/03/08 12:29:15;;;;;;;;;;;;;;;9.36;43.52;67805.38;4994032;28;19925;-85
2022/03/08 12:31:57;;;;;;;;;;;;;;;9.41;46.41;67819.00;5028902;28;19917;-86
2022/03/08 12:34:45;;;;;;;;;;;;;;;9.63;47.47;67838.63;5028620;28;19937;-86
2022/03/08 12:37:10;;;;;;;;;;;;;;;;;;5013365;28;19938;-86
2022/03/08 12:39:56;;;;;;;;;;;;;;;9.77;44.38;67853.94;5017072;28;21548;-86
2022/03/08 12:42:23;;;;;;;;;;;;;;;;;;5029732;28;19925;-86
2022/03/08 12:47:57;;;;;;;;;;;;;;;10.32;46.77;67914.63;5009901;28;19976;-86
2022/03/08 12:50:23;;;;;;;;;;;;;;;10.43;46.05;67923.91;5046054;28;20053;-86
2022/03/08 12:52:53;;;;;;;;;;;;;;;10.62;48.26;67945.47;5012747;28;19929;-86
2022/03/08 12:55:27;;;;;;;;;;;;;;;10.46;45.73;67930.53;5029206;28;19968;-86
2022/03/08 12:57:53;;;;;;;;;;;;;;;10.66;45.96;67949.44;5012699;28;20293;-86
2022/03/08 13:00:18;;;;;;;;;;;;;;;;;;5012905;28;20371;-87
2022/03/08 13:02:43;;;;;;;;;;;;;;;10.67;48.78;67958.53;5014120;28;20496;-86
2022/03/08 13:05:09;;;;;;;;;;;;;;;10.85;47.44;67971.00;5044695;28;19968;-85
2022/03/08 13:07:34;;;;;;;;;;;;;;;;;;5013740;28;19913;-86
2022/03/08 13:09:59;;;;;;;;;;;;;;;10.73;47.68;67965.34;5010868;28;19914;-87
2022/03/08 13:12:25;;;;;;;;;;;;;;;;;;4988492;28;19951;-86
2022/03/08 13:15:05;;;;;;;;;;;;;;;10.90;48.04;67979.31;5013697;28;19923;-87
2022/03/08 13:17:31;;;;;;;;;;;;;;;;;;5041904;28;20363;-88
2022/03/08 13:19:57;;;;;;;;;;;;;;;10.92;45.85;67981.03;5012054;28;19917;-87
2022/03/08 13:22:22;;;;;;;;;;;;;;;11.03;47.85;67994.06;5014233;28;19967;-87
2022/03/08 13:25:07;;;;;;;;;;;;;;;11.14;47.24;68005.44;5025999;28;20481;-87
2022/03/08 13:27:50;;;;;;;;;;;;;;;11.21;49.26;68010.72;5045194;28;19929;-88
2022/03/08 13:30:15;;;;;;;;;;;;;;;;;;5011880;28;19948;-87
2022/03/08 13:32:41;;;;;;;;;;;;;;;;;;5041239;28;19917;-87
2022/03/08 13:35:06;;;;;;;;;;;;;;;;;;5044345;28;19918;-87
2022/03/08 13:37:44;;;;;;;;;;;;;;;11.57;47.84;68053.13;5013401;28;20321;-87
2022/03/08 13:40:23;;;;;;;;;;;;;;;11.71;48.80;68066.38;5011549;28;19917;-87
2022/03/08 13:42:48;;;;;;;;;;;;;;;11.90;46.90;68090.06;5012777;28;19920;-87
2022/03/08 13:45:14;;;;;;;;;;;;;;;11.87;47.83;68086.66;5009897;28;19917;-87
2022/03/08 13:47:39;;;;;;;;;;;;;;;11.91;43.34;68086.44;5027582;28;19917;-87